createdAt,value
2023-03-26T00:01:36.842Z,1.10
2023-03-26T00:04:03.802Z,1.30
2023-03-26T00:06:30.962Z,1.20
2023-03-26T00:08:57.860Z,1.13
2023-03-26T00:11:25.038Z,1.40
2023-03-26T00:13:53.676Z,1.13
2023-03-26T00:16:20.314Z,1.17
2023-03-26T00:18:47.424Z,1.30
2023-03-26T00:21:14.963Z,1.10
2023-03-26T00:23:41.669Z,1.40
2023-03-26T00:26:10.815Z,1.57
2023-03-26T00:28:38.356Z,2.13
2023-03-26T00:31:05.461Z,1.90
2023-03-26T00:33:32.154Z,1.87
2023-03-26T00:36:02.481Z,1.57
2023-03-26T00:38:30.982Z,1.50
2023-03-26T00:40:59.468Z,1.60
2023-03-26T00:43:26.590Z,1.47
2023-03-26T00:45:54.566Z,1.53
2023-03-26T00:48:26.445Z,1.60
2023-03-26T00:51:01.297Z,1.33
2023-03-26T00:53:27.790Z,1.60
2023-03-26T00:55:54.446Z,1.53
2023-03-26T00:58:22.429Z,1.40
2023-03-26T01:00:53.156Z,1.93
2023-03-26T01:03:27.825Z,2.43
2023-03-26T01:06:08.098Z,2.87
2023-03-26T01:08:41.724Z,2.03
2023-03-26T01:11:24.941Z,2.33
2023-03-26T01:13:56.076Z,2.80
2023-03-26T01:16:24.306Z,3.00
2023-03-26T01:18:52.789Z,3.00
2023-03-26T01:21:22.698Z,2.97
2023-03-26T01:23:59.821Z,3.43
2023-03-26T01:26:38.986Z,3.33
2023-03-26T01:29:08.373Z,3.53
2023-03-26T01:31:45.150Z,3.07
2023-03-26T01:34:20.725Z,3.80
2023-03-26T01:36:53.208Z,2.77
2023-03-26T01:39:22.984Z,2.73
2023-03-26T01:41:51.326Z,2.43
2023-03-26T01:44:44.997Z,2.17
2023-03-26T01:47:11.542Z,1.80
2023-03-26T01:49:38.002Z,1.70
2023-03-26T01:52:06.611Z,1.70
2023-03-26T01:54:34.184Z,1.40
2023-03-26T01:57:19.201Z,1.37
2023-03-26T01:59:59.242Z,1.20
2023-03-26T02:02:35.924Z,1.10
2023-03-26T02:05:22.812Z,1.40
2023-03-26T02:07:51.629Z,1.13
2023-03-26T02:10:24.590Z,1.00
2023-03-26T02:12:51.236Z,1.03
2023-03-26T02:15:17.688Z,1.20
2023-03-26T02:17:44.249Z,1.10
2023-03-26T02:20:11.340Z,1.10
2023-03-26T02:22:41.134Z,0.97
2023-03-26T02:25:08.869Z,1.13
2023-03-26T02:27:35.834Z,1.10
2023-03-26T02:30:02.776Z,1.10
2023-03-26T02:32:29.403Z,1.17
2023-03-26T02:34:55.990Z,1.00
2023-03-26T02:37:22.432Z,1.10
2023-03-26T02:39:48.889Z,1.20
2023-03-26T02:42:16.458Z,1.10
2023-03-26T02:44:42.946Z,1.00
2023-03-26T02:47:09.549Z,0.90
2023-03-26T02:49:36.042Z,1.00
2023-03-26T02:52:06.561Z,0.90
2023-03-26T02:54:34.454Z,0.77
2023-03-26T02:57:01.191Z,1.03
2023-03-26T02:59:27.643Z,1.20
2023-03-26T03:01:54.563Z,0.90
2023-03-26T03:04:21.964Z,1.07
2023-03-26T03:06:53.013Z,0.90
2023-03-26T03:09:20.214Z,0.97
2023-03-26T03:11:46.654Z,1.00
2023-03-26T03:14:13.281Z,1.20
2023-03-26T03:16:39.795Z,1.37
2023-03-26T03:19:06.468Z,1.00
2023-03-26T03:21:32.990Z,1.10
2023-03-26T03:24:00.269Z,1.00
2023-03-26T03:26:30.653Z,1.07
2023-03-26T03:28:57.659Z,1.00
2023-03-26T03:31:28.513Z,1.13
2023-03-26T03:33:55.112Z,1.33
2023-03-26T03:36:27.472Z,1.30
2023-03-26T03:38:54.130Z,1.20
2023-03-26T03:41:20.750Z,1.20
2023-03-26T03:43:47.244Z,1.37
2023-03-26T03:46:13.751Z,1.40
2023-03-26T03:48:40.251Z,1.23
2023-03-26T03:51:06.825Z,1.20
2023-03-26T03:53:37.167Z,1.20
2023-03-26T03:56:04.735Z,1.20
2023-03-26T03:58:31.290Z,1.20
2023-03-26T04:01:00.986Z,1.30
2023-03-26T04:03:33.589Z,1.30
2023-03-26T04:06:01.298Z,1.00
2023-03-26T04:08:27.898Z,1.00
2023-03-26T04:10:54.453Z,1.50
2023-03-26T04:13:21.457Z,0.83
2023-03-26T04:15:48.009Z,1.00
2023-03-26T04:18:14.745Z,0.60
2023-03-26T04:20:46.437Z,0.80
2023-03-26T04:23:14.361Z,0.97
2023-03-26T04:25:46.878Z,0.97
2023-03-26T04:28:14.329Z,0.90
2023-03-26T04:30:42.462Z,0.83
2023-03-26T04:33:09.107Z,1.00
2023-03-26T04:35:36.983Z,1.20
2023-03-26T04:38:06.575Z,1.10
2023-03-26T04:40:34.800Z,0.90
2023-03-26T04:43:02.599Z,1.20
2023-03-26T04:45:30.402Z,1.27
2023-03-26T04:47:58.306Z,1.10
2023-03-26T04:50:25.342Z,1.27
2023-03-26T04:52:51.997Z,1.10
2023-03-26T04:55:43.420Z,1.17
2023-03-26T04:58:10.344Z,1.07
2023-03-26T05:00:36.834Z,1.27
2023-03-26T05:03:03.687Z,0.80
2023-03-26T05:05:30.387Z,0.73
2023-03-26T05:07:57.028Z,0.90
2023-03-26T05:10:23.661Z,1.00
2023-03-26T05:12:50.239Z,0.80
2023-03-26T05:15:16.786Z,1.00
2023-03-26T05:17:43.377Z,0.80
2023-03-26T05:20:17.487Z,1.07
2023-03-26T05:22:44.577Z,0.80
2023-03-26T05:25:11.416Z,0.70
2023-03-26T05:27:38.108Z,0.77
2023-03-26T05:30:04.998Z,0.80
2023-03-26T05:32:31.957Z,1.10
2023-03-26T05:34:58.663Z,1.00
2023-03-26T05:37:25.279Z,0.93
2023-03-26T05:39:55.088Z,0.90
2023-03-26T05:42:21.608Z,0.90
2023-03-26T05:44:48.109Z,0.93
2023-03-26T05:47:14.638Z,1.00
2023-03-26T05:49:41.326Z,0.80
2023-03-26T05:52:07.977Z,0.70
2023-03-26T05:54:34.492Z,1.10
2023-03-26T05:57:01.507Z,1.20
2023-03-26T05:59:28.183Z,0.63
2023-03-26T06:01:54.776Z,0.73
2023-03-26T06:04:21.753Z,0.70
2023-03-26T06:06:49.646Z,0.93
2023-03-26T06:09:17.121Z,0.80
2023-03-26T06:11:43.753Z,0.80
2023-03-26T06:14:10.468Z,0.80
2023-03-26T06:16:37.184Z,1.13
2023-03-26T06:19:03.867Z,0.90
2023-03-26T06:21:30.465Z,0.83
2023-03-26T06:23:57.013Z,0.70
2023-03-26T06:26:26.696Z,0.70
2023-03-26T06:28:53.433Z,0.70
2023-03-26T06:31:19.949Z,0.77
2023-03-26T06:33:47.077Z,0.87
2023-03-26T06:36:15.537Z,0.80
2023-03-26T06:38:42.176Z,0.70
2023-03-26T06:41:08.877Z,0.80
2023-03-26T06:43:36.341Z,0.80
2023-03-26T06:46:03.522Z,1.00
2023-03-26T06:48:30.116Z,0.63
2023-03-26T06:51:03.068Z,0.60
2023-03-26T06:53:29.604Z,0.70
2023-03-26T06:55:56.128Z,0.80
2023-03-26T06:58:22.674Z,0.70
2023-03-26T07:00:49.233Z,0.67
2023-03-26T07:03:17.391Z,0.80
2023-03-26T07:05:44.060Z,0.80
2023-03-26T07:08:10.698Z,0.80
2023-03-26T07:10:37.211Z,0.80
2023-03-26T07:13:09.656Z,0.80
2023-03-26T07:15:36.425Z,0.80
2023-03-26T07:18:03.042Z,0.80
2023-03-26T07:20:29.671Z,0.70
2023-03-26T07:22:56.432Z,0.80
2023-03-26T07:25:23.155Z,1.03
2023-03-26T07:27:49.703Z,0.90
2023-03-26T07:30:19.104Z,1.00
2023-03-26T07:32:54.770Z,0.90
2023-03-26T07:35:27.435Z,0.83
2023-03-26T07:38:12.924Z,0.70
2023-03-26T07:40:42.532Z,0.80
2023-03-26T07:43:09.387Z,1.00
2023-03-26T07:45:36.492Z,0.82
2023-03-26T07:48:04.580Z,0.90
2023-03-26T07:50:31.233Z,1.00
2023-03-26T07:52:58.185Z,1.10
2023-03-26T07:55:24.909Z,1.03
2023-03-26T07:57:54.328Z,0.87
2023-03-26T08:00:22.204Z,1.60
2023-03-26T08:03:10.479Z,0.90
2023-03-26T08:05:57.353Z,0.98
2023-03-26T08:08:36.473Z,1.00
2023-03-26T08:11:18.587Z,1.03
2023-03-26T08:13:45.054Z,1.10
2023-03-26T08:16:17.209Z,0.93
2023-03-26T08:18:46.651Z,1.00
2023-03-26T08:21:20.759Z,0.80
2023-03-26T08:23:50.724Z,0.90
2023-03-26T08:26:23.878Z,0.85
2023-03-26T08:28:53.691Z,1.13
2023-03-26T08:31:20.532Z,0.90
2023-03-26T08:33:47.390Z,0.73
2023-03-26T08:36:13.903Z,0.90
2023-03-26T08:38:40.456Z,0.70
2023-03-26T08:41:14.856Z,1.00
2023-03-26T08:43:47.039Z,1.00
2023-03-26T08:46:22.957Z,0.75
2023-03-26T08:49:08.243Z,1.52
2023-03-26T08:51:37.823Z,1.25
2023-03-26T08:54:19.701Z,1.33
2023-03-26T08:56:49.144Z,1.08
2023-03-26T08:59:21.860Z,1.00
2023-03-26T09:01:58.615Z,0.98
2023-03-26T09:04:28.276Z,1.20
2023-03-26T09:07:01.177Z,0.80
2023-03-26T09:09:46.784Z,0.60
2023-03-26T09:12:32.228Z,0.85
2023-03-26T09:15:17.555Z,0.63
2023-03-26T09:17:54.462Z,0.60
2023-03-26T09:20:29.856Z,0.52
2023-03-26T09:23:04.593Z,0.98
2023-03-26T09:25:49.872Z,0.70
2023-03-26T09:28:34.662Z,0.65
2023-03-26T09:31:07.426Z,0.60
2023-03-26T09:33:53.867Z,0.60
2023-03-26T09:36:32.840Z,0.65
2023-03-26T09:39:05.533Z,0.60
2023-03-26T09:41:43.678Z,0.60
2023-03-26T09:44:13.646Z,0.70
2023-03-26T09:46:52.493Z,0.70
2023-03-26T09:49:25.242Z,0.82
2023-03-26T09:52:07.227Z,0.95
2023-03-26T09:54:52.609Z,0.82
2023-03-26T09:57:22.394Z,1.23
2023-03-26T10:00:09.992Z,0.82
2023-03-26T10:02:47.536Z,1.10
2023-03-26T10:05:29.969Z,1.50
2023-03-26T10:08:15.386Z,1.10
2023-03-26T10:10:41.891Z,1.10
2023-03-26T10:13:14.515Z,1.10
2023-03-26T10:15:54.824Z,1.23
2023-03-26T10:18:26.579Z,1.23
2023-03-26T10:21:13.309Z,1.45
2023-03-26T10:23:45.950Z,1.25
2023-03-26T10:26:21.590Z,1.20
2023-03-26T10:29:06.633Z,1.00
2023-03-26T10:31:35.430Z,1.40
2023-03-26T10:34:28.538Z,1.20
2023-03-26T10:36:59.741Z,1.00
2023-03-26T10:39:40.147Z,1.20
2023-03-26T10:42:07.781Z,1.08
2023-03-26T10:44:53.019Z,1.00
2023-03-26T10:47:25.862Z,0.90
2023-03-26T10:50:10.774Z,0.82
2023-03-26T10:52:41.955Z,0.93
2023-03-26T10:55:15.249Z,1.33
2023-03-26T10:57:52.937Z,1.20
2023-03-26T11:00:26.284Z,1.17
2023-03-26T11:03:05.235Z,1.10
2023-03-26T11:05:50.147Z,0.70
2023-03-26T11:08:31.165Z,1.00
2023-03-26T11:10:58.599Z,0.70
2023-03-26T11:13:31.030Z,0.85
2023-03-26T11:16:02.813Z,0.63
2023-03-26T11:18:52.663Z,0.68
2023-03-26T11:21:37.193Z,0.70
2023-03-26T11:24:22.335Z,0.85
2023-03-26T11:26:53.006Z,0.60
2023-03-26T11:29:43.321Z,0.85
2023-03-26T11:32:11.857Z,0.55
2023-03-26T11:34:58.474Z,0.47
2023-03-26T11:37:35.490Z,0.60
2023-03-26T11:40:04.390Z,0.40
2023-03-26T11:42:31.015Z,0.40
2023-03-26T11:45:00.245Z,0.52
2023-03-26T11:47:46.823Z,0.50
2023-03-26T11:50:17.463Z,0.50
2023-03-26T11:52:44.932Z,0.50
2023-03-26T11:55:13.158Z,0.52
2023-03-26T11:57:42.489Z,0.80
2023-03-26T12:00:18.006Z,1.05
2023-03-26T12:02:45.063Z,0.63
2023-03-26T12:05:31.477Z,0.70
2023-03-26T12:07:58.130Z,0.57
2023-03-26T12:10:29.269Z,0.60
2023-03-26T12:12:56.728Z,0.55
2023-03-26T12:15:23.358Z,0.52
2023-03-26T12:17:53.592Z,0.70
2023-03-26T12:20:26.510Z,0.60
2023-03-26T12:22:53.688Z,0.60
2023-03-26T12:25:30.592Z,0.70
2023-03-26T12:28:03.713Z,0.52
2023-03-26T12:30:39.953Z,0.60
2023-03-26T12:33:16.608Z,0.55
2023-03-26T12:35:43.755Z,0.63
2023-03-26T12:38:14.540Z,0.60
2023-03-26T12:40:42.751Z,0.50
2023-03-26T12:44:55.609Z,0.47
2023-03-26T12:47:59.261Z,0.40
2023-03-26T12:49:11.987Z,0.30
2023-03-26T12:51:41.965Z,0.40
2023-03-26T12:54:27.169Z,0.70
2023-03-26T12:57:12.326Z,0.50
2023-03-26T12:59:49.013Z,0.50
2023-03-26T13:02:25.624Z,0.50
2023-03-26T13:05:05.563Z,0.73
2023-03-26T13:07:37.738Z,0.73
2023-03-26T13:10:10.711Z,0.60
2023-03-26T13:12:38.276Z,0.85
2023-03-26T13:15:14.143Z,0.70
2023-03-26T13:17:41.141Z,0.80
2023-03-26T13:20:21.547Z,0.80
2023-03-26T13:23:09.693Z,0.73
2023-03-26T13:25:45.465Z,0.60
2023-03-26T13:28:38.286Z,0.60
2023-03-26T13:31:04.999Z,0.60
2023-03-26T13:33:50.565Z,0.70
2023-03-26T13:36:40.225Z,0.60
2023-03-26T13:39:08.229Z,0.60
2023-03-26T13:41:34.789Z,0.60
2023-03-26T13:44:07.429Z,0.70
2023-03-26T13:46:39.322Z,0.70
2023-03-26T13:49:13.698Z,0.55
2023-03-26T13:51:40.860Z,0.80
2023-03-26T13:54:13.661Z,0.75
2023-03-26T13:57:06.729Z,0.82
2023-03-26T13:59:39.589Z,0.60
2023-03-26T14:02:09.250Z,0.80
2023-03-26T14:04:46.560Z,0.70
2023-03-26T14:07:19.146Z,0.80
2023-03-26T14:09:49.161Z,0.75
2023-03-26T14:12:24.967Z,0.60
2023-03-26T14:15:07.111Z,0.95
2023-03-26T14:17:36.814Z,0.70
2023-03-26T14:20:20.043Z,0.60
2023-03-26T14:22:58.943Z,0.70
2023-03-26T14:25:25.808Z,0.65
2023-03-26T14:27:52.536Z,0.60
2023-03-26T14:30:19.053Z,0.70
2023-03-26T14:33:04.373Z,0.80
2023-03-26T14:35:39.879Z,0.75
2023-03-26T14:38:33.802Z,0.70
2023-03-26T14:41:13.263Z,0.80
2023-03-26T14:44:06.303Z,0.80
2023-03-26T14:46:36.110Z,0.90
2023-03-26T14:49:09.897Z,1.40
2023-03-26T14:51:55.146Z,1.17
2023-03-26T14:54:22.968Z,1.10
2023-03-26T14:57:12.774Z,1.10
2023-03-26T14:59:57.554Z,0.88
2023-03-26T15:02:42.421Z,1.05
2023-03-26T15:05:27.766Z,0.98
2023-03-26T15:08:16.137Z,0.82
2023-03-26T15:11:03.260Z,1.20
2023-03-26T15:13:29.759Z,0.90
2023-03-26T15:16:22.846Z,1.10
2023-03-26T15:19:08.241Z,1.27
2023-03-26T15:21:53.615Z,0.95
2023-03-26T15:24:22.990Z,1.23
2023-03-26T15:27:09.089Z,1.88
2023-03-26T15:29:38.637Z,1.90
2023-03-26T15:32:26.053Z,1.35
2023-03-26T15:34:58.474Z,1.25
2023-03-26T15:37:58.855Z,1.23
2023-03-26T15:40:48.700Z,1.00
2023-03-26T15:43:16.048Z,1.08
2023-03-26T15:45:48.112Z,0.90
2023-03-26T15:48:20.858Z,1.00
2023-03-26T15:51:03.206Z,1.27
2023-03-26T15:53:48.742Z,1.08
2023-03-26T15:56:34.424Z,1.17
2023-03-26T15:59:01.106Z,1.10
2023-03-26T16:01:42.729Z,0.95
2023-03-26T16:04:28.120Z,0.80
2023-03-26T16:07:04.059Z,0.75
2023-03-26T16:09:45.747Z,1.00
2023-03-26T16:12:12.363Z,0.70
2023-03-26T16:14:43.054Z,0.88
2023-03-26T16:17:21.015Z,0.90
2023-03-26T16:19:49.528Z,0.90
2023-03-26T16:22:35.591Z,0.77
2023-03-26T16:25:27.356Z,0.70
2023-03-26T16:28:18.843Z,1.20
2023-03-26T16:30:46.191Z,1.00
2023-03-26T16:33:14.100Z,0.77
2023-03-26T16:35:42.207Z,1.55
2023-03-26T16:38:16.225Z,0.82
2023-03-26T16:41:02.824Z,0.70
2023-03-26T16:43:34.226Z,1.50
2023-03-26T16:46:10.248Z,1.30
2023-03-26T16:48:50.620Z,1.17
2023-03-26T16:51:32.311Z,1.10
2023-03-26T16:54:01.038Z,1.30
2023-03-26T16:56:37.422Z,1.10
2023-03-26T16:59:07.948Z,1.10
2023-03-26T17:01:43.083Z,1.50
2023-03-26T17:04:23.358Z,1.48
2023-03-26T17:06:56.779Z,1.08
2023-03-26T17:09:28.070Z,1.80
2023-03-26T17:12:06.786Z,1.83
2023-03-26T17:14:36.366Z,1.52
2023-03-26T17:17:02.912Z,1.50
2023-03-26T17:19:32.495Z,1.60
2023-03-26T17:22:18.642Z,1.75
2023-03-26T17:24:47.939Z,1.55
2023-03-26T17:27:40.854Z,2.05
2023-03-26T17:30:22.764Z,1.52
2023-03-26T17:32:54.542Z,1.77
2023-03-26T17:35:40.003Z,1.67
2023-03-26T17:38:25.056Z,2.03
2023-03-26T17:40:51.904Z,1.40
2023-03-26T17:43:37.288Z,1.98
2023-03-26T17:46:04.772Z,1.83
2023-03-26T17:48:35.496Z,1.90
2023-03-26T17:51:03.156Z,2.15
2023-03-26T17:53:33.154Z,2.13
2023-03-26T17:56:06.557Z,2.33
2023-03-26T17:58:36.871Z,1.70
2023-03-26T18:01:09.790Z,2.00
2023-03-26T18:03:37.074Z,2.00
2023-03-26T18:06:07.712Z,1.88
2023-03-26T18:08:46.498Z,2.33
2023-03-26T18:11:23.523Z,2.20
2023-03-26T18:14:09.421Z,2.78
2023-03-26T18:16:56.256Z,2.72
2023-03-26T18:19:23.036Z,2.70
2023-03-26T18:21:52.581Z,2.45
2023-03-26T18:24:32.280Z,3.30
2023-03-26T18:27:01.648Z,2.95
2023-03-26T18:29:29.102Z,2.80
2023-03-26T18:32:07.516Z,2.83
2023-03-26T18:34:34.177Z,3.55
2023-03-26T18:37:06.329Z,3.00
2023-03-26T18:39:32.925Z,2.97
2023-03-26T18:41:59.512Z,2.80
2023-03-26T18:44:26.244Z,2.92
2023-03-26T18:46:54.663Z,2.03
2023-03-26T18:49:21.725Z,1.63
2023-03-26T18:51:56.665Z,1.63
2023-03-26T18:54:24.393Z,1.58
2023-03-26T18:56:52.356Z,1.70
2023-03-26T18:59:31.969Z,1.33
2023-03-26T19:02:06.039Z,1.35
2023-03-26T19:04:33.935Z,1.17
2023-03-26T19:07:00.636Z,1.38
2023-03-26T19:09:32.177Z,1.30
2023-03-26T19:12:04.233Z,1.27
2023-03-26T19:14:35.418Z,1.80
2023-03-26T19:17:02.185Z,1.40
2023-03-26T19:19:32.642Z,1.55
2023-03-26T19:21:59.738Z,1.30
2023-03-26T19:24:26.534Z,1.60
2023-03-26T19:26:53.058Z,1.42
2023-03-26T19:29:23.387Z,1.52
2023-03-26T19:31:50.553Z,1.10
2023-03-26T19:34:24.749Z,1.23
2023-03-26T19:36:58.320Z,0.95
2023-03-26T19:39:36.906Z,1.05
2023-03-26T19:42:04.931Z,1.40
2023-03-26T19:44:31.577Z,1.13
2023-03-26T19:47:01.915Z,1.45
2023-03-26T19:49:29.575Z,1.58
2023-03-26T19:52:10.991Z,1.50
2023-03-26T19:54:59.487Z,1.50
2023-03-26T19:57:28.131Z,1.60
2023-03-26T19:59:55.660Z,1.38
2023-03-26T20:02:22.658Z,1.60
2023-03-26T20:04:49.240Z,1.33
2023-03-26T20:07:19.641Z,1.63
2023-03-26T20:09:48.706Z,1.73
2023-03-26T20:12:19.788Z,1.88
2023-03-26T20:14:46.562Z,2.20
2023-03-26T20:17:13.722Z,2.20
2023-03-26T20:19:40.717Z,2.20
2023-03-26T20:22:11.446Z,2.40
2023-03-26T20:24:38.046Z,1.80
2023-03-26T20:27:04.737Z,2.22
2023-03-26T20:29:31.339Z,2.30
2023-03-26T20:31:57.935Z,2.80
2023-03-26T20:34:26.204Z,2.60
2023-03-26T20:36:55.440Z,2.50
2023-03-26T20:39:22.624Z,3.10
2023-03-26T20:41:50.133Z,1.98
2023-03-26T20:44:17.993Z,2.38
2023-03-26T20:46:44.609Z,3.00
2023-03-26T20:49:11.225Z,3.25
2023-03-26T20:51:38.449Z,3.03
2023-03-26T20:54:15.245Z,2.83
2023-03-26T20:56:42.369Z,3.90
2023-03-26T20:59:11.704Z,3.15
2023-03-26T21:01:38.693Z,3.78
2023-03-26T21:04:05.720Z,4.25
2023-03-26T21:06:32.330Z,5.32
2023-03-26T21:08:59.142Z,7.75
2023-03-26T21:11:28.754Z,7.53
2023-03-26T21:14:00.277Z,7.38
2023-03-26T21:16:27.076Z,8.13
2023-03-26T21:18:53.766Z,7.85
2023-03-26T21:21:39.058Z,7.80
2023-03-26T21:24:29.777Z,7.65
2023-03-26T21:26:56.357Z,7.35
2023-03-26T21:29:23.028Z,6.18
2023-03-26T21:31:50.513Z,5.72
2023-03-26T21:34:20.014Z,5.85
2023-03-26T21:36:47.217Z,5.90
2023-03-26T21:39:13.957Z,6.37
2023-03-26T21:41:45.122Z,6.50
2023-03-26T21:44:11.875Z,7.03
2023-03-26T21:46:40.898Z,6.88
2023-03-26T21:49:07.545Z,6.93
2023-03-26T21:51:34.272Z,6.75
2023-03-26T21:54:01.158Z,7.60
2023-03-26T21:56:43.064Z,6.67
2023-03-26T21:59:15.775Z,6.18
2023-03-26T22:01:44.129Z,6.40
2023-03-26T22:04:16.799Z,5.77
2023-03-26T22:06:49.113Z,6.40
2023-03-26T22:09:18.494Z,6.90
2023-03-26T22:11:47.259Z,6.30
2023-03-26T22:14:14.353Z,7.60
2023-03-26T22:16:41.682Z,8.17
2023-03-26T22:19:08.691Z,8.23
2023-03-26T22:21:36.062Z,8.02
2023-03-26T22:24:04.212Z,9.18
2023-03-26T22:26:30.945Z,10.07
2023-03-26T22:29:00.746Z,9.18
2023-03-26T22:31:27.404Z,8.57
2023-03-26T22:33:54.300Z,8.13
2023-03-26T22:36:23.373Z,7.75
2023-03-26T22:38:53.090Z,8.73
2023-03-26T22:41:19.649Z,8.20
2023-03-26T22:43:46.485Z,8.10
2023-03-26T22:46:13.837Z,7.88
2023-03-26T22:48:40.943Z,8.13
2023-03-26T22:51:08.306Z,8.27
2023-03-26T22:53:35.037Z,7.80
2023-03-26T22:56:01.623Z,7.37
2023-03-26T22:58:28.345Z,6.90
2023-03-26T23:01:13.863Z,7.33
2023-03-26T23:03:40.503Z,6.82
2023-03-26T23:06:08.065Z,6.70
2023-03-26T23:08:35.247Z,7.27
2023-03-26T23:11:02.201Z,7.28
2023-03-26T23:13:28.738Z,6.18
2023-03-26T23:15:55.701Z,6.87
2023-03-26T23:18:22.207Z,6.80
2023-03-26T23:20:49.211Z,6.75
2023-03-26T23:23:16.104Z,6.57
2023-03-26T23:25:44.223Z,6.73
2023-03-26T23:28:10.703Z,6.93
2023-03-26T23:30:37.239Z,7.10
2023-03-26T23:33:03.954Z,8.30
2023-03-26T23:35:30.579Z,7.97
2023-03-26T23:37:57.153Z,8.32
2023-03-26T23:40:23.681Z,8.17
2023-03-26T23:42:50.287Z,6.40
2023-03-26T23:45:17.498Z,7.23
2023-03-26T23:47:44.714Z,7.65
2023-03-26T23:50:11.323Z,7.32
2023-03-26T23:52:37.840Z,6.90
2023-03-26T23:55:04.541Z,6.93
2023-03-26T23:57:31.082Z,6.83
2023-03-26T23:59:57.963Z,6.83
